Time;durP1;ratioP1;P1;durP2;ratioP2;P2;SDS_P1;SDS_P2;PMS_P1;PMS_P2;Temp;Humidity;BMP_temperature;BMP_pressure;BME280_temperature;BME280_humidity;BME280_pressure;Samples;Min_cycle;Max_cycle;Signal;HPM_P1;HPM_P2
2023/07/19 00:01:38;;;;;;;8.32;5.35;;;;;;;;;;4399258;32;65026;-59
2023/07/19 00:04:25;;;;;;;8.75;5.22;;;;;;;;;;4389367;32;66372;-58
2023/07/19 00:07:12;;;;;;;8.93;5.50;;;;;;;;;;4377883;32;60079;-58
2023/07/19 00:09:59;;;;;;;9.27;5.45;;;;;;;;;;4377324;32;71129;-59
2023/07/19 00:12:45;;;;;;;;;;;;;;;;;;4378757;32;64759;-59
2023/07/19 00:15:33;;;;;;;8.88;5.37;;;;;;;;;;4407184;32;67050;-58
2023/07/19 00:18:20;;;;;;;7.85;5.47;;;;;;;;;;4407669;32;60182;-58
2023/07/19 00:21:06;;;;;;;9.15;5.62;;;;;;;;;;4408169;32;69350;-58
2023/07/19 00:23:58;;;;;;;;;;;;;;;;;;4387366;32;70003;-58
2023/07/19 00:26:46;;;;;;;8.70;5.50;;;;;;;;;;4387119;32;67989;-59
2023/07/19 00:29:32;;;;;;;8.15;5.25;;;;;;;;;;4396382;32;71662;-58
2023/07/19 00:32:19;;;;;;;7.47;5.15;;;;;;;;;;4404783;32;64899;-58
2023/07/19 00:35:06;;;;;;;;;;;;;;;;;;4387269;32;66811;-58
2023/07/19 00:37:53;;;;;;;8.50;5.10;;;;;;;;;;4387044;32;66891;-59
2023/07/19 00:40:39;;;;;;;;;;;;;;;;;;4396030;32;72090;-59
2023/07/19 00:43:24;;;;;;;8.32;5.35;;;;;;;;;;3847682;37;43872;-57
2023/07/19 00:46:11;;;;;;;6.65;5.15;;;;;;;;;;4399219;32;60324;-58
2023/07/19 00:48:59;;;;;;;7.07;5.25;;;;;;;;;;4409641;32;69454;-58
2023/07/19 00:51:46;;;;;;;7.87;5.40;;;;;;;;;;4409591;32;68229;-58
2023/07/19 00:54:32;;;;;;;8.63;5.35;;;;;;;;;;4398705;32;66858;-58
2023/07/19 00:57:19;;;;;;;;;;;;;;;;;;4383393;32;70357;-58
2023/07/19 01:00:06;;;;;;;7.75;5.28;;;;;;;;;;4394932;32;65836;-58
2023/07/19 01:02:53;;;;;;;8.02;5.50;;;;;;;;;;4383501;32;67274;-58
2023/07/19 01:05:41;;;;;;;9.63;5.53;;;;;;;;;;4383847;32;59935;-58
2023/07/19 01:08:28;;;;;;;7.87;5.57;;;;;;;;;;4393988;32;71871;-58
2023/07/19 01:11:15;;;;;;;10.07;5.97;;;;;;;;;;4372367;32;65741;-58
2023/07/19 01:14:04;;;;;;;6.80;5.25;;;;;;;;;;4372070;32;68175;-57
2023/07/19 01:16:51;;;;;;;7.12;5.15;;;;;;;;;;4383479;32;59890;-58
2023/07/19 01:19:38;;;;;;;7.60;5.12;;;;;;;;;;4393913;32;69729;-58
2023/07/19 01:22:36;;;;;;;6.78;5.15;;;;;;;;;;4382580;32;67952;-58
2023/07/19 01:25:23;;;;;;;8.55;5.05;;;;;;;;;;4393844;32;66871;-58
2023/07/19 01:28:10;;;;;;;6.82;4.95;;;;;;;;;;4383258;32;71236;-59
2023/07/19 01:30:57;;;;;;;6.50;4.85;;;;;;;;;;4372766;32;64831;-58
2023/07/19 01:33:43;;;;;;;;;;;;;;;;;;4383375;32;69275;-59
2023/07/19 01:36:31;;;;;;;7.40;5.53;;;;;;;;;;4383582;32;67831;-58
2023/07/19 01:39:19;;;;;;;6.45;4.75;;;;;;;;;;4383596;32;71522;-58
2023/07/19 01:42:06;;;;;;;7.53;5.15;;;;;;;;;;4382664;32;65893;-58
2023/07/19 01:44:56;;;;;;;6.72;5.55;;;;;;;;;;4383210;32;67360;-58
2023/07/19 01:47:44;;;;;;;8.85;5.10;;;;;;;;;;4394024;32;60286;-59
2023/07/19 01:50:31;;;;;;;7.45;5.20;;;;;;;;;;4382789;32;70439;-58
2023/07/19 01:53:17;;;;;;;;;;;;;;;;;;4378736;32;69717;-57
2023/07/19 01:56:04;;;;;;;6.80;4.93;;;;;;;;;;4361870;32;67764;-58
2023/07/19 01:58:51;;;;;;;7.70;5.40;;;;;;;;;;4351076;32;59985;-58
2023/07/19 02:01:37;;;;;;;6.45;4.82;;;;;;;;;;4362216;32;70688;-58
2023/07/19 02:04:23;;;;;;;;;;;;;;;;;;4372941;32;69676;-58
2023/07/19 02:07:10;;;;;;;7.05;5.35;;;;;;;;;;4372049;32;66043;-62
2023/07/19 02:09:56;;;;;;;;;;;;;;;;;;4383758;32;71714;-58
2023/07/19 02:12:44;;;;;;;7.47;5.43;;;;;;;;;;4383176;32;64786;-58
2023/07/19 02:15:31;;;;;;;6.95;5.50;;;;;;;;;;4372750;32;67532;-58
2023/07/19 02:18:22;;;;;;;6.72;5.28;;;;;;;;;;4372428;32;60820;-58
2023/07/19 02:21:09;;;;;;;7.03;5.10;;;;;;;;;;4372514;32;70499;-58
2023/07/19 02:23:57;;;;;;;6.80;5.53;;;;;;;;;;4350731;32;66782;-58
2023/07/19 02:26:44;;;;;;;7.75;5.55;;;;;;;;;;4372625;32;66811;-58
2023/07/19 02:29:32;;;;;;;7.32;5.32;;;;;;;;;;4372951;32;60467;-58
2023/07/19 02:32:19;;;;;;;8.15;5.07;;;;;;;;;;4372188;32;70677;-58
2023/07/19 02:35:06;;;;;;;6.57;5.35;;;;;;;;;;4382922;32;69621;-58
2023/07/19 02:37:53;;;;;;;9.23;5.97;;;;;;;;;;4361823;32;67483;-58
2023/07/19 02:40:41;;;;;;;9.35;5.28;;;;;;;;;;4382566;32;71444;-58
2023/07/19 02:43:27;;;;;;;;;;;;;;;;;;4361952;32;65744;-59
2023/07/19 02:46:14;;;;;;;6.80;4.93;;;;;;;;;;4371877;32;68331;-58
2023/07/19 02:49:03;;;;;;;7.60;5.00;;;;;;;;;;4383944;32;67458;-58
2023/07/19 02:51:50;;;;;;;7.62;5.35;;;;;;;;;;4372013;32;71518;-58
2023/07/19 02:54:36;;;;;;;7.03;5.10;;;;;;;;;;4372244;32;65046;-58
2023/07/19 02:57:23;;;;;;;7.20;5.40;;;;;;;;;;4371985;32;67692;-58
2023/07/19 03:00:12;;;;;;;7.15;5.90;;;;;;;;;;4372451;32;59045;-59
2023/07/19 03:02:59;;;;;;;6.93;5.20;;;;;;;;;;4371819;32;71057;-58
2023/07/19 03:05:46;;;;;;;7.37;5.20;;;;;;;;;;4381545;32;69497;-58
2023/07/19 03:08:34;;;;;;;6.97;4.72;;;;;;;;;;4361565;32;67185;-59
2023/07/19 03:11:21;;;;;;;7.55;5.00;;;;;;;;;;4382893;32;60030;-58
2023/07/19 03:14:08;;;;;;;9.15;5.20;;;;;;;;;;4382567;32;70723;-58
2023/07/19 03:16:54;;;;;;;;;;;;;;;;;;4361684;32;68249;-58
2023/07/19 03:19:41;;;;;;;6.05;4.37;;;;;;;;;;4371629;32;67389;-59
2023/07/19 03:22:27;;;;;;;;;;;;;;;;;;4371934;32;71720;-58
2023/07/19 03:25:15;;;;;;;8.63;5.90;;;;;;;;;;4382719;32;65333;-58
2023/07/19 03:28:02;;;;;;;6.70;4.00;;;;;;;;;;4360852;32;68625;-58
2023/07/19 03:30:49;;;;;;;8.23;4.85;;;;;;;;;;4372575;32;59219;-58
2023/07/19 03:33:35;;;;;;;9.82;4.50;;;;;;;;;;4371421;32;69618;-58
2023/07/19 03:36:23;;;;;;;6.55;4.87;;;;;;;;;;4371776;32;65753;-58
2023/07/19 03:39:10;;;;;;;6.93;5.12;;;;;;;;;;4350352;32;68743;-58
2023/07/19 03:41:57;;;;;;;7.40;5.28;;;;;;;;;;4360485;32;58799;-58
2023/07/19 03:44:44;;;;;;;8.70;4.55;;;;;;;;;;4382118;32;70620;-58
2023/07/19 03:47:30;;;;;;;6.07;4.75;;;;;;;;;;4361098;32;67957;-57
2023/07/19 03:50:17;;;;;;;6.70;5.20;;;;;;;;;;4360610;32;67371;-58
2023/07/19 03:53:04;;;;;;;;;;;;;;;;;;4360599;32;72208;-57
2023/07/19 03:55:55;;;;;;;7.32;5.47;;;;;;;;;;4360938;32;65205;-58
2023/07/19 03:58:45;;;;;;;8.20;4.82;;;;;;;;;;4371681;32;66834;-58
2023/07/19 04:01:31;;;;;;;7.85;4.80;;;;;;;;;;4370554;32;66779;-57
2023/07/19 04:04:18;;;;;;;7.82;4.75;;;;;;;;;;4381933;32;70804;-58
2023/07/19 04:07:05;;;;;;;;;;;;;;;;;;4370941;32;66897;-57
2023/07/19 04:12:38;;;;;;;5.57;4.62;;;;;;;;;;3847508;37;43442;-59
2023/07/19 04:15:26;;;;;;;7.43;4.72;;;;;;;;;;4388967;32;59873;-58
2023/07/19 04:18:12;;;;;;;;;;;;;;;;;;4410366;32;69547;-58
2023/07/19 04:21:00;;;;;;;5.82;4.55;;;;;;;;;;4388381;32;70106;-59
2023/07/19 04:23:47;;;;;;;8.65;4.87;;;;;;;;;;4387685;32;68244;-58
2023/07/19 04:26:33;;;;;;;6.78;4.82;;;;;;;;;;4387687;32;71308;-58
2023/07/19 04:29:21;;;;;;;;;;;;;;;;;;4399307;32;65211;-58
2023/07/19 04:32:07;;;;;;;;;;;;;;;;;;4388841;32;67354;-58
2023/07/19 04:34:54;;;;;;;6.15;4.68;;;;;;;;;;4411282;32;60079;-59
2023/07/19 04:37:41;;;;;;;6.55;4.93;;;;;;;;;;4387708;32;72583;-58
2023/07/19 04:40:28;;;;;;;7.22;5.30;;;;;;;;;;4398743;32;66228;-58
2023/07/19 04:43:15;;;;;;;7.28;5.28;;;;;;;;;;4398737;32;67448;-61
2023/07/19 04:46:05;;;;;;;7.80;5.80;;;;;;;;;;4398741;32;57886;-58
2023/07/19 04:48:52;;;;;;;6.43;5.25;;;;;;;;;;4388239;32;69454;-58
2023/07/19 04:51:39;;;;;;;7.30;5.10;;;;;;;;;;4376635;32;67011;-59
2023/07/19 04:54:26;;;;;;;8.77;5.32;;;;;;;;;;4409580;32;66771;-59
2023/07/19 04:57:12;;;;;;;7.28;5.53;;;;;;;;;;4398574;32;71664;-58
2023/07/19 04:59:58;;;;;;;;;;;;;;;;;;4399299;32;65942;-60
2023/07/19 05:02:45;;;;;;;7.25;5.57;;;;;;;;;;4388498;32;69760;-57
2023/07/19 05:05:32;;;;;;;8.60;5.50;;;;;;;;;;4376833;32;68140;-58
2023/07/19 05:08:18;;;;;;;;;;;;;;;;;;4398978;32;70748;-59
2023/07/19 05:11:05;;;;;;;6.45;4.95;;;;;;;;;;4408568;32;67040;-58
2023/07/19 05:13:52;;;;;;;6.85;5.15;;;;;;;;;;4397715;32;67957;-59
2023/07/19 05:16:40;;;;;;;5.68;4.70;;;;;;;;;;4388021;32;60027;-58
2023/07/19 05:19:27;;;;;;;7.25;5.70;;;;;;;;;;4398107;32;70553;-59
2023/07/19 05:22:14;;;;;;;7.20;5.22;;;;;;;;;;4395122;32;68271;-58
2023/07/19 05:25:00;;;;;;;9.93;6.07;;;;;;;;;;4377126;32;67652;-59
2023/07/19 05:27:47;;;;;;;7.32;5.75;;;;;;;;;;4388200;32;60422;-59
2023/07/19 05:30:33;;;;;;;9.43;6.15;;;;;;;;;;4377258;32;70635;-59
2023/07/19 05:33:20;;;;;;;5.97;5.10;;;;;;;;;;4365830;32;69446;-59
2023/07/19 05:36:10;;;;;;;9.00;6.25;;;;;;;;;;4398535;32;67611;-58
2023/07/19 05:38:56;;;;;;;7.93;5.93;;;;;;;;;;4387260;32;70465;-59
2023/07/19 05:41:43;;;;;;;6.22;5.03;;;;;;;;;;4387073;32;63490;-59
2023/07/19 05:44:30;;;;;;;6.87;5.95;;;;;;;;;;4376431;32;67571;-59
2023/07/19 05:47:17;;;;;;;11.77;5.72;;;;;;;;;;4376844;32;61206;-58
2023/07/19 05:50:03;;;;;;;7.85;6.10;;;;;;;;;;4387532;32;69917;-59
2023/07/19 05:52:50;;;;;;;6.47;5.43;;;;;;;;;;4387634;32;64837;-58
2023/07/19 05:55:37;;;;;;;6.93;5.95;;;;;;;;;;4386800;32;67480;-58
2023/07/19 05:58:24;;;;;;;7.12;5.97;;;;;;;;;;4377110;32;59150;-59
2023/07/19 06:01:14;;;;;;;7.70;6.20;;;;;;;;;;4387547;32;70615;-59
2023/07/19 06:04:01;;;;;;;8.05;5.97;;;;;;;;;;4387095;32;69949;-58
2023/07/19 06:06:49;;;;;;;7.20;5.93;;;;;;;;;;4387371;32;67449;-59
2023/07/19 06:09:36;;;;;;;7.55;6.10;;;;;;;;;;4387731;32;71585;-58
2023/07/19 06:12:23;;;;;;;9.90;7.00;;;;;;;;;;4387326;32;65029;-60
2023/07/19 06:15:09;;;;;;;;;;;;;;;;;;4398627;32;66722;-59
2023/07/19 06:17:56;;;;;;;7.37;5.83;;;;;;;;;;4387546;32;67593;-58
2023/07/19 06:20:43;;;;;;;7.60;5.93;;;;;;;;;;4376786;32;71859;-58
2023/07/19 06:23:29;;;;;;;7.65;5.70;;;;;;;;;;4398001;32;66210;-59
2023/07/19 06:26:16;;;;;;;5.95;4.47;;;;;;;;;;4399226;32;66258;-58
2023/07/19 06:29:03;;;;;;;6.20;5.28;;;;;;;;;;4376364;32;60849;-59
2023/07/19 06:31:50;;;;;;;8.20;6.25;;;;;;;;;;4375649;32;71337;-58
2023/07/19 06:34:37;;;;;;;8.07;6.43;;;;;;;;;;4396829;32;69740;-58
2023/07/19 06:37:23;;;;;;;6.97;5.62;;;;;;;;;;4397707;32;67492;-58
2023/07/19 06:40:10;;;;;;;8.30;6.97;;;;;;;;;;4399068;32;60144;-58
2023/07/19 06:42:57;;;;;;;9.38;6.72;;;;;;;;;;4387155;32;69779;-58
2023/07/19 06:45:46;;;;;;;8.38;6.50;;;;;;;;;;4375537;32;69942;-59
2023/07/19 06:48:32;;;;;;;8.65;6.35;;;;;;;;;;4397855;32;66672;-59
2023/07/19 06:51:19;;;;;;;8.68;7.00;;;;;;;;;;4386270;32;71892;-58
2023/07/19 06:54:05;;;;;;;8.52;5.78;;;;;;;;;;4386228;32;65800;-58
2023/07/19 06:56:52;;;;;;;;;;;;;;;;;;4376324;32;66866;-58
2023/07/19 06:59:38;;;;;;;9.77;6.12;;;;;;;;;;4399320;32;59699;-58
2023/07/19 07:02:25;;;;;;;8.75;5.90;;;;;;;;;;4397330;32;69576;-58
2023/07/19 07:05:12;;;;;;;7.87;6.07;;;;;;;;;;4398519;32;66213;-59
2023/07/19 07:07:58;;;;;;;9.80;6.35;;;;;;;;;;4376254;32;67824;-59
2023/07/19 07:10:48;;;;;;;6.85;5.60;;;;;;;;;;4386963;32;59839;-59
2023/07/19 07:13:35;;;;;;;7.55;5.72;;;;;;;;;;4386492;32;70473;-59
2023/07/19 07:16:22;;;;;;;11.57;6.00;;;;;;;;;;4386715;32;68486;-59
2023/07/19 07:19:10;;;;;;;7.82;5.95;;;;;;;;;;4397212;32;66377;-59
2023/07/19 07:21:57;;;;;;;9.20;6.65;;;;;;;;;;4375336;32;71373;-59
2023/07/19 07:24:43;;;;;;;10.25;6.40;;;;;;;;;;4364797;32;66550;-59
2023/07/19 07:27:30;;;;;;;7.75;6.07;;;;;;;;;;4375461;32;68128;-58
2023/07/19 07:30:19;;;;;;;6.60;5.53;;;;;;;;;;4375076;32;68172;-57
2023/07/19 07:33:06;;;;;;;8.57;6.62;;;;;;;;;;4397976;32;70809;-58
2023/07/19 07:35:54;;;;;;;7.53;5.78;;;;;;;;;;4386378;32;66049;-58
2023/07/19 07:38:41;;;;;;;7.55;6.22;;;;;;;;;;4386469;32;67834;-57
2023/07/19 07:41:27;;;;;;;;;;;;;;;;;;4387040;32;60325;-57
2023/07/19 07:44:14;;;;;;;11.60;6.90;;;;;;;;;;4375228;32;69006;-59
2023/07/19 07:47:00;;;;;;;6.65;5.55;;;;;;;;;;4364249;32;70721;-59
2023/07/19 07:49:47;;;;;;;7.12;5.90;;;;;;;;;;4397050;32;67637;-58
2023/07/19 07:52:35;;;;;;;9.10;6.57;;;;;;;;;;4364455;32;69857;-58
2023/07/19 07:55:22;;;;;;;7.12;6.40;;;;;;;;;;4385974;32;70568;-58
2023/07/19 07:58:10;;;;;;;7.72;6.30;;;;;;;;;;4397997;32;69348;-59
2023/07/19 08:00:57;;;;;;;7.47;6.57;;;;;;;;;;4386135;32;67786;-59
2023/07/19 08:03:43;;;;;;;8.32;6.47;;;;;;;;;;4397928;32;71932;-59
2023/07/19 08:06:30;;;;;;;;;;;;;;;;;;4385978;32;63371;-59
2023/07/19 08:09:17;;;;;;;9.77;6.70;;;;;;;;;;4396945;32;67801;-59
2023/07/19 08:12:04;;;;;;;8.93;6.32;;;;;;;;;;4375242;32;60113;-58
2023/07/19 08:14:51;;;;;;;7.95;6.25;;;;;;;;;;4385984;32;69558;-59
2023/07/19 08:17:37;;;;;;;9.38;6.47;;;;;;;;;;4374444;32;68934;-58
2023/07/19 08:20:25;;;;;;;8.48;5.78;;;;;;;;;;4385740;32;66738;-59
2023/07/19 08:23:12;;;;;;;8.05;5.85;;;;;;;;;;4385398;32;58112;-59
2023/07/19 08:25:59;;;;;;;8.82;5.15;;;;;;;;;;4396500;32;69834;-59
2023/07/19 08:28:45;;;;;;;6.90;5.62;;;;;;;;;;4374479;32;70033;-59
2023/07/19 08:31:32;;;;;;;6.55;5.85;;;;;;;;;;4375241;32;67858;-58
2023/07/19 08:35:37;;;;;;;6.85;6.05;;;;;;;;;;3847314;37;43495;-58
2023/07/19 08:38:25;;;;;;;8.60;6.07;;;;;;;;;;4409801;32;60287;-59
2023/07/19 08:41:12;;;;;;;;;;;;;;;;;;4388694;32;69520;-58
2023/07/19 08:43:59;;;;;;;7.68;6.35;;;;;;;;;;4409859;32;69688;-59
2023/07/19 08:46:48;;;;;;;7.53;5.78;;;;;;;;;;4398971;32;67535;-59
2023/07/19 08:49:38;;;;;;;7.65;6.22;;;;;;;;;;4398944;32;70779;-58
2023/07/19 08:52:26;;;;;;;7.25;5.78;;;;;;;;;;4398989;32;66131;-59
2023/07/19 08:55:13;;;;;;;6.75;5.15;;;;;;;;;;4398475;32;66515;-59
2023/07/19 08:58:00;;;;;;;7.72;5.32;;;;;;;;;;4398646;32;60388;-58
2023/07/19 09:00:48;;;;;;;7.18;5.22;;;;;;;;;;4387439;32;72527;-58
2023/07/19 09:03:35;;;;;;;6.85;5.12;;;;;;;;;;4409245;32;65776;-58
2023/07/19 09:06:25;;;;;;;6.50;4.97;;;;;;;;;;4398150;32;68063;-59
2023/07/19 09:09:24;;;;;;;6.32;5.20;;;;;;;;;;3801134;37;43400;-58
2023/07/19 09:12:11;;;;;;;7.10;5.05;;;;;;;;;;4368716;32;60337;-60
2023/07/19 09:14:59;;;;;;;6.68;5.15;;;;;;;;;;4357949;32;70615;-59
2023/07/19 09:17:48;;;;;;;6.32;5.47;;;;;;;;;;4378982;32;69335;-60
2023/07/19 09:20:37;;;;;;;6.18;5.43;;;;;;;;;;4368223;32;67804;-59
2023/07/19 09:23:25;;;;;;;7.00;5.32;;;;;;;;;;4357723;32;71625;-57
2023/07/19 09:26:13;;;;;;;6.75;5.60;;;;;;;;;;4358037;32;67288;-59
2023/07/19 09:29:00;;;;;;;;;;;;;;;;;;4357245;32;65637;-58
2023/07/19 09:32:02;;;;;;;8.60;5.70;;;;;;;;;;4368329;32;60098;-58
2023/07/19 09:34:50;;;;;;;7.60;5.37;;;;;;;;;;4367875;32;71485;-58
2023/07/19 09:37:36;;;;;;;9.52;5.43;;;;;;;;;;4367442;32;66823;-59
2023/07/19 09:40:24;;;;;;;7.95;5.72;;;;;;;;;;4378870;32;67354;-59
2023/07/19 09:43:15;;;;;;;6.60;5.45;;;;;;;;;;4357745;32;59055;-58
2023/07/19 09:46:04;;;;;;;6.65;5.47;;;;;;;;;;4368622;32;70582;-58
2023/07/19 09:48:51;;;;;;;7.22;5.62;;;;;;;;;;4378440;32;68203;-58
2023/07/19 09:51:42;;;;;;;7.97;5.25;;;;;;;;;;4357346;32;67028;-60
2023/07/19 09:54:30;;;;;;;7.25;4.68;;;;;;;;;;4367749;32;70880;-57
2023/07/19 09:57:18;;;;;;;7.40;5.15;;;;;;;;;;4363535;32;64930;-57
2023/07/19 10:00:05;;;;;;;7.00;5.50;;;;;;;;;;4351858;32;68270;-57
2023/07/19 10:02:54;;;;;;;7.20;5.35;;;;;;;;;;4342239;32;67204;-59
2023/07/19 10:05:44;;;;;;;6.22;4.80;;;;;;;;;;4363384;32;71838;-58
2023/07/19 10:08:31;;;;;;;6.20;4.95;;;;;;;;;;4341185;32;65304;-58
2023/07/19 10:11:23;;;;;;;7.50;4.80;;;;;;;;;;4352426;32;66548;-58
2023/07/19 10:14:10;;;;;;;6.75;4.97;;;;;;;;;;4363407;32;60025;-58
2023/07/19 10:17:01;;;;;;;6.05;4.50;;;;;;;;;;4341561;32;70066;-59
2023/07/19 10:20:26;;;;;;;7.15;5.05;;;;;;;;;;4357097;32;68395;-58
2023/07/19 10:23:15;;;;;;;6.60;4.15;;;;;;;;;;4320650;32;67911;-59
2023/07/19 10:26:09;;;;;;;6.43;4.68;;;;;;;;;;4353057;32;61232;-59
2023/07/19 10:29:01;;;;;;;7.35;4.80;;;;;;;;;;4363505;32;69581;-59
2023/07/19 10:31:48;;;;;;;5.87;4.37;;;;;;;;;;4352906;32;68322;-58
2023/07/19 10:34:35;;;;;;;6.40;4.80;;;;;;;;;;4353037;32;66701;-59
2023/07/19 10:37:22;;;;;;;5.75;4.40;;;;;;;;;;4342417;32;71671;-58
2023/07/19 10:40:09;;;;;;;6.35;4.85;;;;;;;;;;4353154;32;65938;-59
2023/07/19 10:42:55;;;;;;;6.35;5.00;;;;;;;;;;4342090;32;66625;-59
2023/07/19 10:45:42;;;;;;;5.93;4.57;;;;;;;;;;4342841;32;59201;-58
2023/07/19 10:48:32;;;;;;;6.57;5.00;;;;;;;;;;4352705;32;68570;-57
2023/07/19 10:51:20;;;;;;;6.55;4.93;;;;;;;;;;4363332;32;66445;-58
2023/07/19 10:54:08;;;;;;;7.87;5.10;;;;;;;;;;4363111;32;67120;-58
2023/07/19 10:56:57;;;;;;;7.55;5.72;;;;;;;;;;4363267;32;59065;-59
2023/07/19 10:59:50;;;;;;;10.13;5.62;;;;;;;;;;4342076;32;69762;-58
2023/07/19 11:02:36;;;;;;;5.97;5.15;;;;;;;;;;4342017;32;69524;-57
2023/07/19 11:05:23;;;;;;;8.43;5.78;;;;;;;;;;4342583;32;66971;-59
2023/07/19 11:08:10;;;;;;;7.07;5.40;;;;;;;;;;4351456;32;72309;-59
2023/07/19 11:10:58;;;;;;;7.70;5.53;;;;;;;;;;4363018;32;65840;-58
2023/07/19 11:13:46;;;;;;;7.90;5.78;;;;;;;;;;4352770;32;66791;-60
2023/07/19 11:16:33;;;;;;;8.10;6.32;;;;;;;;;;4352001;32;68408;-58
2023/07/19 11:19:34;;;;;;;7.10;6.10;;;;;;;;;;4352357;32;71646;-58
2023/07/19 11:22:23;;;;;;;7.40;6.05;;;;;;;;;;4352661;32;64972;-58
2023/07/19 11:25:11;;;;;;;7.75;6.18;;;;;;;;;;4342484;32;66537;-58
2023/07/19 11:27:58;;;;;;;8.85;5.45;;;;;;;;;;4352849;32;59882;-59
2023/07/19 11:30:44;;;;;;;7.60;5.82;;;;;;;;;;4340737;32;70220;-59
2023/07/19 11:33:34;;;;;;;8.40;6.35;;;;;;;;;;4352401;32;68429;-59
2023/07/19 11:36:21;;;;;;;7.78;6.10;;;;;;;;;;4330844;32;68580;-57
2023/07/19 11:39:17;;;;;;;6.93;5.30;;;;;;;;;;4342059;32;60295;-59
2023/07/19 11:42:05;;;;;;;8.05;6.35;;;;;;;;;;4352540;32;69234;-59
2023/07/19 11:44:51;;;;;;;8.32;5.95;;;;;;;;;;4351693;32;68997;-58
2023/07/19 11:47:38;;;;;;;7.20;5.72;;;;;;;;;;4352198;32;67682;-58
2023/07/19 11:50:25;;;;;;;7.65;6.10;;;;;;;;;;4330256;32;72441;-59
2023/07/19 11:53:12;;;;;;;9.23;5.85;;;;;;;;;;4351525;32;67176;-57
2023/07/19 11:55:58;;;;;;;7.45;5.95;;;;;;;;;;4352005;32;67434;-59
2023/07/19 11:58:46;;;;;;;6.90;5.90;;;;;;;;;;4352333;32;60189;-59
2023/07/19 12:01:33;;;;;;;8.13;5.90;;;;;;;;;;4352230;32;70278;-59
2023/07/19 12:04:19;;;;;;;8.82;5.70;;;;;;;;;;4341272;32;66964;-59
2023/07/19 12:07:06;;;;;;;7.25;5.40;;;;;;;;;;4340441;32;66741;-60
2023/07/19 12:09:52;;;;;;;8.38;5.85;;;;;;;;;;4352391;32;59285;-59
2023/07/19 12:12:39;;;;;;;7.60;6.28;;;;;;;;;;4341926;32;70790;-59
2023/07/19 12:15:26;;;;;;;8.07;5.60;;;;;;;;;;4363300;32;68213;-58
2023/07/19 12:18:12;;;;;;;6.40;5.32;;;;;;;;;;4352732;32;67328;-58
2023/07/19 12:20:59;;;;;;;9.20;5.60;;;;;;;;;;4351803;32;72178;-59
2023/07/19 12:23:46;;;;;;;7.75;5.53;;;;;;;;;;4351850;32;66046;-59
2023/07/19 12:26:34;;;;;;;7.95;5.87;;;;;;;;;;4353406;32;66965;-58
2023/07/19 12:29:20;;;;;;;7.25;5.82;;;;;;;;;;4341081;32;66739;-59
2023/07/19 12:32:07;;;;;;;6.53;5.28;;;;;;;;;;4352804;32;71476;-59
2023/07/19 12:34:54;;;;;;;7.05;5.85;;;;;;;;;;4340903;32;65969;-58
2023/07/19 12:37:41;;;;;;;7.12;5.12;;;;;;;;;;4341008;32;68142;-58
2023/07/19 12:40:27;;;;;;;;;;;;;;;;;;4341660;32;58931;-58
2023/07/19 12:43:14;;;;;;;8.00;5.90;;;;;;;;;;4340717;32;70885;-59
2023/07/19 12:46:01;;;;;;;7.37;5.62;;;;;;;;;;4351686;32;69590;-58
2023/07/19 12:48:48;;;;;;;7.18;5.60;;;;;;;;;;4340503;32;68477;-59
2023/07/19 12:51:35;;;;;;;8.25;5.50;;;;;;;;;;4351752;32;71936;-59
2023/07/19 12:54:21;;;;;;;;;;;;;;;;;;4362475;32;69582;-60
2023/07/19 12:57:07;;;;;;;8.55;5.60;;;;;;;;;;4351377;32;69463;-60
2023/07/19 12:59:52;;;;;;;6.78;5.62;;;;;;;;;;3847562;37;43393;-59
2023/07/19 13:02:39;;;;;;;7.03;5.50;;;;;;;;;;4388661;32;59231;-59
2023/07/19 13:05:26;;;;;;;9.00;6.12;;;;;;;;;;4409441;32;70801;-59
2023/07/19 13:08:13;;;;;;;7.05;5.62;;;;;;;;;;4398867;32;68540;-59
2023/07/19 13:10:59;;;;;;;;;;;;;;;;;;4387875;32;68119;-59
2023/07/19 13:13:46;;;;;;;7.70;6.55;;;;;;;;;;4397795;32;72446;-58
2023/07/19 13:16:32;;;;;;;;;;;;;;;;;;4399113;32;65924;-58
2023/07/19 13:19:19;;;;;;;6.80;5.82;;;;;;;;;;4398774;32;67053;-59
2023/07/19 13:22:06;;;;;;;6.32;5.20;;;;;;;;;;4387851;32;59793;-60
2023/07/19 13:24:52;;;;;;;6.78;5.53;;;;;;;;;;4398798;32;71889;-59
2023/07/19 13:27:41;;;;;;;6.65;5.80;;;;;;;;;;4398924;32;66169;-58
2023/07/19 13:30:27;;;;;;;8.45;5.55;;;;;;;;;;4408969;32;67961;-58
2023/07/19 13:33:14;;;;;;;9.45;5.00;;;;;;;;;;4398963;32;59210;-59
2023/07/19 13:36:00;;;;;;;6.97;5.43;;;;;;;;;;4398547;32;69461;-59
2023/07/19 13:38:47;;;;;;;5.60;4.60;;;;;;;;;;4409098;32;68366;-59
2023/07/19 13:41:33;;;;;;;5.82;4.65;;;;;;;;;;4410503;32;66683;-59
2023/07/19 13:44:20;;;;;;;5.70;4.50;;;;;;;;;;4377011;32;71774;-59
2023/07/19 13:47:07;;;;;;;;;;;;;;;;;;4399035;32;65376;-59
2023/07/19 13:49:53;;;;;;;5.70;3.92;;;;;;;;;;4397677;32;70105;-59
2023/07/19 13:52:39;;;;;;;5.12;4.50;;;;;;;;;;4397847;32;67843;-59
2023/07/19 13:55:26;;;;;;;5.65;4.43;;;;;;;;;;4375809;32;72463;-60
2023/07/19 13:58:13;;;;;;;;;;;;;;;;;;4397759;32;65769;-59
2023/07/19 14:00:59;;;;;;;7.60;5.10;;;;;;;;;;4398557;32;67910;-59
2023/07/19 14:03:46;;;;;;;5.55;3.80;;;;;;;;;;4409158;32;59229;-58
2023/07/19 14:06:33;;;;;;;7.87;4.32;;;;;;;;;;4398148;32;71063;-59
2023/07/19 14:09:19;;;;;;;5.95;4.03;;;;;;;;;;4395918;32;68424;-59
2023/07/19 14:12:07;;;;;;;7.65;4.05;;;;;;;;;;4387305;32;65817;-60
2023/07/19 14:14:57;;;;;;;6.97;3.22;;;;;;;;;;4388365;32;60152;-58
2023/07/19 14:17:43;;;;;;;4.20;2.62;;;;;;;;;;4397919;32;69749;-59
2023/07/19 14:20:30;;;;;;;5.10;2.87;;;;;;;;;;4398973;32;69418;-59
2023/07/19 14:23:16;;;;;;;5.43;3.08;;;;;;;;;;4387369;32;69303;-59
2023/07/19 14:26:03;;;;;;;3.85;2.70;;;;;;;;;;4387588;32;71893;-59
2023/07/19 14:28:50;;;;;;;6.78;3.12;;;;;;;;;;4376861;32;66618;-60
2023/07/19 14:31:37;;;;;;;5.72;2.50;;;;;;;;;;4387722;32;67770;-59
2023/07/19 14:34:26;;;;;;;2.60;2.30;;;;;;;;;;4376970;32;59505;-59
2023/07/19 14:37:14;;;;;;;3.67;2.70;;;;;;;;;;4387322;32;70542;-59
2023/07/19 14:40:00;;;;;;;;;;;;;;;;;;4376783;32;65537;-58
2023/07/19 14:42:50;;;;;;;;;;;;;;;;;;4387977;32;67836;-59
2023/07/19 14:45:39;;;;;;;5.78;2.22;;;;;;;;;;4376740;32;60421;-59
2023/07/19 14:48:26;;;;;;;2.92;1.95;;;;;;;;;;4387648;32;69575;-59
2023/07/19 14:51:12;;;;;;;4.45;2.35;;;;;;;;;;4398227;32;69574;-60
2023/07/19 14:54:00;;;;;;;;;;;;;;;;;;4387866;32;67476;-58
2023/07/19 14:56:46;;;;;;;;;;;;;;;;;;4399801;32;70988;-60
2023/07/19 14:59:32;;;;;;;4.43;2.28;;;;;;;;;;4398115;32;65026;-58
2023/07/19 15:02:19;;;;;;;3.42;1.90;;;;;;;;;;4387840;32;67541;-59
2023/07/19 15:05:06;;;;;;;;;;;;;;;;;;4376932;32;67668;-59
2023/07/19 15:07:52;;;;;;;3.22;2.33;;;;;;;;;;4376122;32;70520;-60
2023/07/19 15:10:39;;;;;;;2.65;1.67;;;;;;;;;;4387192;32;65927;-60
2023/07/19 15:13:25;;;;;;;;;;;;;;;;;;4377089;32;67651;-59
2023/07/19 15:16:12;;;;;;;3.30;1.55;;;;;;;;;;4388091;32;58985;-59
2023/07/19 15:18:59;;;;;;;4.03;1.80;;;;;;;;;;4375940;32;71243;-59
2023/07/19 15:21:48;;;;;;;3.87;1.60;;;;;;;;;;4365044;32;69850;-60
2023/07/19 15:24:34;;;;;;;;;;;;;;;;;;4398555;32;67877;-60
2023/07/19 15:27:21;;;;;;;1.40;1.20;;;;;;;;;;4398478;32;58845;-59
2023/07/19 15:30:08;;;;;;;2.58;1.52;;;;;;;;;;4376437;32;70370;-59
2023/07/19 15:32:55;;;;;;;2.12;1.50;;;;;;;;;;4397653;32;69155;-59
2023/07/19 15:35:41;;;;;;;1.20;1.10;;;;;;;;;;4387040;32;66809;-59
2023/07/19 15:38:45;;;;;;;2.25;1.52;;;;;;;;;;4397694;32;70735;-59
2023/07/19 15:41:31;;;;;;;2.67;1.10;;;;;;;;;;4398057;32;65080;-59
2023/07/19 15:44:19;;;;;;;1.90;0.90;;;;;;;;;;4386455;32;67037;-58
2023/07/19 15:47:06;;;;;;;2.28;1.30;;;;;;;;;;4387274;32;60043;-60
2023/07/19 15:49:53;;;;;;;1.37;1.27;;;;;;;;;;4398587;32;70326;-59
2023/07/19 15:52:40;;;;;;;;;;;;;;;;;;4386535;32;65813;-59
2023/07/19 15:55:26;;;;;;;;;;;;;;;;;;4387864;32;66992;-59
2023/07/19 15:58:14;;;;;;;1.37;1.27;;;;;;;;;;4399255;32;58968;-58
2023/07/19 16:01:01;;;;;;;1.85;1.10;;;;;;;;;;4387206;32;70170;-59
2023/07/19 16:03:48;;;;;;;2.55;1.37;;;;;;;;;;4386525;32;68943;-59
2023/07/19 16:06:35;;;;;;;;;;;;;;;;;;4376890;32;67644;-58
2023/07/19 16:09:22;;;;;;;1.37;1.12;;;;;;;;;;4387017;32;71476;-58
2023/07/19 16:12:08;;;;;;;3.15;1.42;;;;;;;;;;4398527;32;66163;-59
2023/07/19 16:14:55;;;;;;;2.97;1.23;;;;;;;;;;4387494;32;67412;-59
2023/07/19 16:17:42;;;;;;;;;;;;;;;;;;4388590;32;67659;-58
2023/07/19 16:20:28;;;;;;;1.83;1.30;;;;;;;;;;4387771;32;70755;-59
2023/07/19 16:23:15;;;;;;;;;;;;;;;;;;4398266;32;66769;-59
2023/07/19 16:26:02;;;;;;;1.40;1.30;;;;;;;;;;4399709;32;67000;-59
2023/07/19 16:28:48;;;;;;;1.73;1.42;;;;;;;;;;4398528;32;59382;-60
2023/07/19 16:31:35;;;;;;;1.37;1.27;;;;;;;;;;4388768;32;70376;-59
2023/07/19 16:34:21;;;;;;;3.10;1.40;;;;;;;;;;4407782;32;69565;-59
2023/07/19 16:37:08;;;;;;;1.95;1.30;;;;;;;;;;4398663;32;66879;-58
2023/07/19 16:39:54;;;;;;;;;;;;;;;;;;4387071;32;72387;-59
2023/07/19 16:42:41;;;;;;;2.25;1.35;;;;;;;;;;4410012;32;69622;-60
2023/07/19 16:45:28;;;;;;;2.25;1.40;;;;;;;;;;4378643;32;67098;-59
2023/07/19 16:48:15;;;;;;;1.85;1.40;;;;;;;;;;4400498;32;67028;-59
2023/07/19 16:51:01;;;;;;;;;;;;;;;;;;4378228;32;71178;-59
2023/07/19 16:53:48;;;;;;;1.63;1.13;;;;;;;;;;4408722;32;66982;-59
2023/07/19 16:56:35;;;;;;;2.17;1.52;;;;;;;;;;4373782;32;67340;-59
2023/07/19 16:59:22;;;;;;;1.65;1.52;;;;;;;;;;4381855;32;60025;-59
2023/07/19 17:02:13;;;;;;;2.55;1.62;;;;;;;;;;4397947;32;70679;-58